Terminal Aerodrome Forecast
Issued by NWS Missoula, MT

Home | Current Version | Previous Version | Text Only | Print | Product List | Glossary On
Versions: 1 2 3 4 5 6 7 8 9 10 11 12 13 14 15 16 17 18 19
000
FTUS45 KMSO 271720
TAFMSO
TAF
KMSO 271720Z 2718/2818 14003KT 6SM -SN BR SCT035 OVC060
     FM272200 13004KT 5SM -SN BR SCT010 OVC035
     FM280500 VRB03KT 1SM -SN BR BKN006 OVC015
     FM281200 VRB03KT 1/2SM SN OVC006
     FM281500 06007KT 1SM -SN BR OVC009=

USA.gov is the U.S. government's official web portal to all federal, state and local government web resources and services.